createdAt,value
2023-04-10T00:02:37.982Z,3.00
2023-04-10T00:06:02.922Z,3.30
2023-04-10T00:09:42.097Z,2.90
2023-04-10T00:13:25.892Z,3.40
2023-04-10T00:20:57.348Z,3.20
2023-04-10T00:24:37.554Z,3.40
2023-04-10T00:28:39.149Z,4.30
2023-04-10T00:31:50.958Z,4.50
2023-04-10T00:35:25.609Z,4.70
2023-04-10T00:39:26.226Z,4.20
2023-04-10T00:42:49.690Z,4.00
2023-04-10T00:46:38.333Z,3.60
2023-04-10T00:50:01.908Z,4.10
2023-04-10T00:53:37.014Z,4.00
2023-04-10T00:57:08.111Z,4.60
2023-04-10T01:00:55.197Z,4.30
2023-04-10T01:04:24.572Z,3.70
2023-04-10T01:08:23.150Z,3.20
2023-04-10T01:12:27.962Z,2.90
2023-04-10T01:16:12.145Z,3.30
2023-04-10T01:19:50.496Z,2.40
2023-04-10T01:23:25.478Z,3.20
2023-04-10T01:31:31.275Z,3.40
2023-04-10T01:35:45.369Z,3.30
2023-04-10T01:38:58.600Z,4.60
2023-04-10T01:42:51.960Z,3.80
2023-04-10T01:46:20.517Z,3.80
2023-04-10T01:49:51.467Z,3.50
2023-04-10T01:53:34.633Z,3.20
2023-04-10T01:57:08.813Z,3.60
2023-04-10T02:01:05.658Z,3.50
2023-04-10T02:04:24.924Z,3.50
2023-04-10T02:08:26.490Z,4.00
2023-04-10T02:11:50.985Z,3.00
2023-04-10T02:15:36.577Z,3.30
2023-04-10T02:19:07.827Z,3.60
2023-04-10T02:22:38.031Z,3.20
2023-04-10T02:26:23.171Z,2.90
2023-04-10T02:29:55.285Z,3.20
2023-04-10T02:33:36.493Z,2.80
2023-04-10T02:41:26.058Z,2.30
2023-04-10T02:44:43.636Z,2.50
2023-04-10T02:52:21.935Z,2.80
2023-04-10T02:56:06.871Z,2.30
2023-04-10T02:59:43.090Z,2.10
2023-04-10T03:03:16.523Z,2.70
2023-04-10T03:06:48.666Z,2.70
2023-04-10T03:10:29.583Z,2.00
2023-04-10T03:13:59.346Z,2.20
2023-04-10T03:17:40.393Z,2.00
2023-04-10T03:21:22.202Z,2.40
2023-04-10T03:24:57.770Z,2.90
2023-04-10T03:32:08.462Z,2.80
2023-04-10T03:35:46.598Z,2.40
2023-04-10T03:39:22.473Z,2.70
2023-04-10T03:43:02.528Z,2.50
2023-04-10T03:46:42.575Z,3.10
2023-04-10T03:50:19.394Z,3.20
2023-04-10T03:53:54.990Z,4.10
2023-04-10T03:57:33.619Z,5.10
2023-04-10T04:01:15.984Z,4.60
2023-04-10T04:05:35.085Z,5.90
2023-04-10T04:09:02.393Z,5.20
2023-04-10T04:12:50.599Z,5.40
2023-04-10T04:16:34.282Z,5.60
2023-04-10T04:20:08.435Z,5.10
2023-04-10T04:24:00.010Z,5.40
2023-04-10T04:27:46.106Z,4.70
2023-04-10T04:31:18.222Z,5.00
2023-04-10T04:35:02.498Z,4.90
2023-04-10T04:38:46.151Z,4.40
2023-04-10T04:42:39.713Z,5.50
2023-04-10T04:46:32.772Z,5.10
2023-04-10T04:50:16.628Z,5.00
2023-04-10T04:53:57.268Z,4.80
2023-04-10T04:57:51.915Z,4.90
2023-04-10T05:01:55.691Z,5.00
2023-04-10T05:05:41.058Z,5.30
2023-04-10T05:09:08.492Z,5.80
2023-04-10T05:12:59.648Z,4.90
2023-04-10T05:16:45.766Z,6.00
2023-04-10T05:20:26.748Z,5.50
2023-04-10T05:24:04.246Z,5.70
2023-04-10T05:27:50.748Z,5.10
2023-04-10T05:31:25.867Z,5.40
2023-04-10T05:35:05.004Z,5.20
2023-04-10T05:38:54.279Z,5.00
2023-04-10T05:42:38.335Z,4.90
2023-04-10T05:46:11.814Z,5.20
2023-04-10T05:53:38.092Z,5.10
2023-04-10T05:57:21.260Z,4.50
2023-04-10T06:08:12.038Z,6.10
2023-04-10T06:11:50.913Z,5.30
2023-04-10T06:23:04.137Z,5.90
2023-04-10T06:26:42.112Z,6.10
2023-04-10T06:30:15.397Z,5.80
2023-04-10T06:33:56.895Z,6.10
2023-04-10T06:37:31.759Z,6.50
2023-04-10T06:41:02.880Z,5.10
2023-04-10T06:44:40.389Z,6.00
2023-04-10T06:48:18.051Z,5.80
2023-04-10T06:51:56.137Z,6.00
2023-04-10T06:55:33.646Z,6.10
2023-04-10T06:59:11.180Z,6.00
2023-04-10T07:02:48.878Z,6.60
2023-04-10T07:06:27.434Z,5.00
2023-04-10T07:10:04.423Z,3.20
2023-04-10T07:13:41.834Z,3.70
2023-04-10T07:17:19.720Z,2.80
2023-04-10T07:20:57.559Z,2.40
2023-04-10T07:24:34.735Z,2.30
2023-04-10T07:28:13.382Z,2.70
2023-04-10T07:31:50.259Z,2.60
2023-04-10T07:35:28.205Z,2.20
2023-04-10T07:39:06.105Z,2.50
2023-04-10T07:42:43.397Z,2.60
2023-04-10T07:46:20.779Z,2.30
2023-04-10T07:49:58.451Z,2.80
2023-04-10T07:53:36.985Z,2.40
2023-04-10T07:57:13.938Z,2.50
2023-04-10T08:00:52.272Z,2.30
2023-04-10T08:04:32.007Z,2.00
2023-04-10T08:08:06.640Z,2.30
2023-04-10T08:11:44.405Z,1.90
2023-04-10T08:15:22.098Z,1.60
2023-04-10T08:19:01.030Z,1.90
2023-04-10T08:22:38.241Z,2.00
2023-04-10T08:26:15.194Z,1.90
2023-04-10T08:29:53.076Z,1.70
2023-04-10T08:33:30.856Z,2.00
2023-04-10T08:37:12.317Z,1.90
2023-04-10T08:40:45.648Z,2.00
2023-04-10T08:44:23.757Z,1.90
2023-04-10T08:48:05.890Z,1.90
2023-04-10T08:51:39.085Z,1.80
2023-04-10T08:55:17.398Z,1.90
2023-04-10T08:58:54.674Z,2.10
2023-04-10T09:02:32.602Z,2.10
2023-04-10T09:06:10.070Z,1.80
2023-04-10T09:09:47.685Z,1.90
2023-04-10T09:13:45.241Z,2.20
2023-04-10T09:17:22.312Z,1.80
2023-04-10T09:20:40.641Z,2.00
2023-04-10T09:24:18.647Z,2.30
2023-04-10T09:28:10.014Z,2.10
2023-04-10T09:31:34.646Z,2.10
2023-04-10T09:35:15.044Z,2.20
2023-04-10T09:38:52.717Z,2.70
2023-04-10T09:42:37.549Z,1.90
2023-04-10T09:46:07.632Z,2.10
2023-04-10T09:49:51.037Z,1.90
2023-04-10T09:53:20.770Z,2.30
2023-04-10T09:57:18.745Z,2.00
2023-04-10T10:04:17.652Z,2.50
2023-04-10T10:07:51.051Z,1.90
2023-04-10T10:11:30.030Z,2.10
2023-04-10T10:15:27.815Z,1.80
2023-04-10T10:18:55.245Z,2.10
2023-04-10T10:22:23.058Z,1.90
2023-04-10T10:26:02.368Z,2.30
2023-04-10T10:29:39.748Z,2.10
2023-04-10T10:33:14.503Z,2.30
2023-04-10T10:36:51.592Z,1.90
2023-04-10T10:40:33.415Z,2.10
2023-04-10T10:44:44.923Z,2.00
2023-04-10T10:48:02.869Z,1.80
2023-04-10T10:51:48.357Z,1.90
2023-04-10T10:55:29.051Z,2.10
2023-04-10T10:58:58.061Z,2.50
2023-04-10T11:02:31.941Z,1.90
2023-04-10T11:06:12.866Z,1.80
2023-04-10T11:09:54.743Z,1.80
2023-04-10T11:13:24.919Z,2.80
2023-04-10T11:17:02.069Z,2.10
2023-04-10T11:21:18.458Z,1.90
2023-04-10T11:24:19.240Z,1.90
2023-04-10T11:27:57.063Z,2.10
2023-04-10T11:31:34.932Z,2.40
2023-04-10T11:35:19.696Z,2.80
2023-04-10T11:39:10.104Z,2.20
2023-04-10T11:42:27.741Z,1.80
2023-04-10T11:46:08.091Z,1.80
2023-04-10T11:49:43.181Z,1.70
2023-04-10T11:53:21.871Z,2.10
2023-04-10T11:57:09.049Z,2.10
2023-04-10T12:00:36.154Z,1.90
2023-04-10T12:04:22.720Z,2.40
2023-04-10T12:07:51.711Z,2.00
2023-04-10T12:11:29.832Z,1.80
2023-04-10T12:15:30.950Z,2.00
2023-04-10T12:18:46.414Z,2.00
2023-04-10T12:22:24.169Z,1.70
2023-04-10T12:26:08.627Z,2.30
2023-04-10T12:29:39.995Z,2.10
2023-04-10T12:33:24.210Z,2.00
2023-04-10T12:36:54.251Z,2.90
2023-04-10T12:40:31.787Z,2.30
2023-04-10T12:44:12.214Z,2.50
2023-04-10T12:47:49.303Z,2.60
2023-04-10T12:51:47.879Z,2.40
2023-04-10T12:55:31.407Z,3.10
2023-04-10T12:58:41.268Z,2.20
2023-04-10T13:02:20.097Z,2.40
2023-04-10T13:05:55.903Z,3.00
2023-04-10T13:09:33.564Z,3.30
2023-04-10T13:13:14.637Z,2.90
2023-04-10T13:16:49.017Z,2.10
2023-04-10T13:20:26.810Z,2.00
2023-04-10T13:24:04.047Z,2.40
2023-04-10T13:27:57.469Z,2.50
2023-04-10T13:31:29.098Z,2.50
2023-04-10T13:35:01.147Z,2.50
2023-04-10T13:38:38.790Z,2.30
2023-04-10T13:42:16.300Z,2.30
2023-04-10T13:45:54.173Z,2.80
2023-04-10T13:49:31.626Z,2.80
2023-04-10T13:53:10.604Z,2.60
2023-04-10T13:56:47.243Z,2.40
2023-04-10T14:00:24.478Z,3.10
2023-04-10T14:04:02.267Z,2.80
2023-04-10T14:07:39.809Z,3.00
2023-04-10T14:11:17.450Z,3.20
2023-04-10T14:14:57.112Z,3.00
2023-04-10T14:18:32.940Z,2.90
2023-04-10T14:22:10.486Z,2.70
2023-04-10T14:25:50.386Z,2.70
2023-04-10T14:29:38.908Z,2.90
2023-04-10T14:33:03.399Z,3.10
2023-04-10T14:36:41.931Z,4.00
2023-04-10T14:40:18.447Z,3.10
2023-04-10T14:43:56.611Z,3.00
2023-04-10T14:47:34.298Z,4.30
2023-04-10T14:51:13.782Z,3.20
2023-04-10T14:54:49.685Z,3.00
2023-04-10T14:58:27.306Z,3.80
2023-04-10T15:02:04.925Z,3.30
2023-04-10T15:05:42.554Z,3.30
2023-04-10T15:09:21.439Z,3.40
2023-04-10T15:12:58.500Z,3.10
2023-04-10T15:16:35.928Z,2.80
2023-04-10T15:20:13.463Z,3.40
2023-04-10T15:23:51.140Z,3.20
2023-04-10T15:27:29.086Z,3.50
2023-04-10T15:31:06.968Z,3.20
2023-04-10T15:34:45.471Z,3.10
2023-04-10T15:38:21.628Z,3.20
2023-04-10T15:42:00.453Z,3.50
2023-04-10T15:45:37.794Z,3.40
2023-04-10T15:49:20.422Z,3.10
2023-04-10T15:52:52.619Z,3.40
2023-04-10T15:56:30.192Z,3.40
2023-04-10T16:00:09.098Z,3.20
2023-04-10T16:03:46.504Z,3.00
2023-04-10T16:07:23.418Z,3.90
2023-04-10T16:11:00.649Z,3.50
2023-04-10T16:14:39.326Z,3.10
2023-04-10T16:18:16.085Z,3.90
2023-04-10T16:21:53.680Z,4.10
2023-04-10T16:25:32.007Z,3.50
2023-04-10T16:29:09.409Z,3.70
2023-04-10T16:32:46.741Z,3.90
2023-04-10T16:36:25.054Z,4.10
2023-04-10T16:40:02.327Z,6.60
2023-04-10T16:43:40.408Z,6.40
2023-04-10T16:47:17.723Z,6.70
2023-04-10T16:50:55.250Z,5.20
2023-04-10T16:54:33.102Z,6.30
2023-04-10T16:58:11.226Z,6.00
2023-04-10T17:01:48.461Z,7.70
2023-04-10T17:05:26.748Z,6.80
2023-04-10T17:09:04.074Z,6.60
2023-04-10T17:12:43.457Z,6.20
2023-04-10T17:16:19.259Z,6.60
2023-04-10T17:19:56.909Z,8.20
2023-04-10T17:23:34.563Z,11.40
2023-04-10T17:27:12.450Z,13.70
2023-04-10T17:30:49.979Z,12.00
2023-04-10T17:34:27.472Z,11.60
2023-04-10T17:38:05.211Z,13.60
2023-04-10T17:41:42.451Z,11.70
2023-04-10T17:45:20.655Z,20.20
2023-04-10T17:49:02.142Z,21.50
2023-04-10T17:52:35.884Z,13.20
2023-04-10T17:56:19.860Z,12.00
2023-04-10T17:59:50.814Z,11.70
2023-04-10T18:03:28.595Z,14.20
2023-04-10T18:07:06.663Z,13.50
2023-04-10T18:10:44.127Z,9.00
2023-04-10T18:14:22.312Z,6.60
2023-04-10T18:17:59.634Z,6.50
2023-04-10T18:21:37.309Z,7.70
2023-04-10T18:25:18.440Z,9.10
2023-04-10T18:28:53.266Z,6.90
2023-04-10T18:32:30.395Z,7.90
2023-04-10T18:36:29.915Z,8.70
2023-04-10T18:40:16.507Z,8.40
2023-04-10T18:43:54.192Z,7.90
2023-04-10T18:47:22.584Z,7.10
2023-04-10T18:51:00.434Z,11.60
2023-04-10T18:54:38.528Z,10.30
2023-04-10T18:58:15.684Z,10.80
2023-04-10T19:01:53.655Z,16.60
2023-04-10T19:05:32.917Z,17.80
2023-04-10T19:09:11.555Z,13.60
2023-04-10T19:12:47.976Z,12.00
2023-04-10T19:16:24.026Z,18.90
2023-04-10T19:20:02.132Z,37.30
2023-04-10T19:23:39.379Z,32.30
2023-04-10T19:27:17.263Z,17.80
2023-04-10T19:30:54.892Z,13.80
2023-04-10T19:34:32.687Z,17.80
2023-04-10T19:38:10.304Z,17.80
2023-04-10T19:41:47.980Z,13.30
2023-04-10T19:45:27.642Z,11.20
2023-04-10T19:49:03.616Z,8.00
2023-04-10T19:52:43.165Z,6.50
2023-04-10T19:56:18.928Z,5.30
2023-04-10T19:59:56.118Z,5.30
2023-04-10T20:03:35.896Z,5.40
2023-04-10T20:07:11.320Z,4.60
2023-04-10T20:10:49.355Z,4.90
2023-04-10T20:14:26.908Z,5.60
2023-04-10T20:18:04.949Z,4.90
2023-04-10T20:22:02.028Z,5.30
2023-04-10T20:25:20.289Z,5.30
2023-04-10T20:28:58.837Z,5.30
2023-04-10T20:32:35.742Z,6.30
2023-04-10T20:36:13.747Z,5.90
2023-04-10T20:39:51.152Z,5.80
2023-04-10T20:43:28.246Z,5.00
2023-04-10T20:47:06.885Z,5.30
2023-04-10T20:50:46.288Z,5.00
2023-04-10T20:54:24.289Z,6.10
2023-04-10T20:57:59.123Z,5.30
2023-04-10T21:01:36.580Z,5.70
2023-04-10T21:05:14.265Z,5.90
2023-04-10T21:12:30.614Z,5.10
2023-04-10T21:16:07.372Z,5.70
2023-04-10T21:19:45.217Z,4.70
2023-04-10T21:23:22.701Z,5.40
2023-04-10T21:27:00.753Z,5.10
2023-04-10T21:30:37.662Z,5.00
2023-04-10T21:34:15.477Z,5.70
2023-04-10T21:37:58.340Z,6.10
2023-04-10T21:41:31.087Z,5.00
2023-04-10T21:45:09.489Z,4.60
2023-04-10T21:48:46.591Z,5.70
2023-04-10T21:52:23.779Z,5.60
2023-04-10T21:56:01.581Z,5.20
2023-04-10T21:59:39.376Z,6.00
2023-04-10T22:03:17.656Z,5.60
2023-04-10T22:06:54.613Z,5.70
2023-04-10T22:10:33.485Z,5.80
2023-04-10T22:14:16.513Z,6.20
2023-04-10T22:17:48.409Z,6.00
2023-04-10T22:21:25.915Z,7.00
2023-04-10T22:25:03.128Z,6.10
2023-04-10T22:28:40.770Z,5.50
2023-04-10T22:32:18.500Z,5.70
2023-04-10T22:35:56.286Z,5.30
2023-04-10T22:39:34.318Z,6.50
2023-04-10T22:43:11.575Z,5.40
2023-04-10T22:46:49.717Z,6.70
2023-04-10T22:50:26.635Z,6.40
2023-04-10T22:54:04.902Z,6.00
2023-04-10T22:57:42.309Z,7.70
2023-04-10T23:01:20.238Z,6.90
2023-04-10T23:04:58.022Z,7.30
2023-04-10T23:08:35.753Z,7.40
2023-04-10T23:12:13.106Z,7.10
2023-04-10T23:15:51.323Z,7.70
2023-04-10T23:19:28.860Z,6.40
2023-04-10T23:23:06.013Z,6.60
2023-04-10T23:26:43.818Z,6.00
2023-04-10T23:30:21.454Z,5.90
2023-04-10T23:33:59.148Z,6.30
2023-04-10T23:37:36.778Z,6.30
2023-04-10T23:41:14.115Z,6.70
2023-04-10T23:44:52.031Z,6.60
2023-04-10T23:48:30.486Z,6.90
2023-04-10T23:52:10.862Z,6.10
2023-04-10T23:55:45.062Z,6.70
2023-04-10T23:59:23.156Z,6.80
